Time;durP1;ratioP1;P1;durP2;ratioP2;P2;SDS_P1;SDS_P2;PMS_P1;PMS_P2;Temp;Humidity;BMP_temperature;BMP_pressure;BME280_temperature;BME280_humidity;BME280_pressure;Samples;Min_cycle;Max_cycle;Signal;HPM_P1;HPM_P2
2022/04/29 00:00:09;;;;;;;25.67;9.68;;;12.10;99.90;;;;;;5052391;28;20124;-73
2022/04/29 00:02:35;;;;;;;15.25;7.93;;;12.00;99.90;;;;;;5052146;28;20548;-73
2022/04/29 00:05:02;;;;;;;19.13;8.70;;;11.80;99.90;;;;;;5052275;28;20086;-73
2022/04/29 00:07:28;;;;;;;21.67;8.90;;;11.80;99.90;;;;;;5052893;28;20036;-72
2022/04/29 00:09:54;;;;;;;19.05;8.43;;;11.80;99.90;;;;;;5056646;28;20492;-72
2022/04/29 00:12:20;;;;;;;25.80;8.68;;;11.90;99.90;;;;;;5056612;28;20033;-73
2022/04/29 00:14:47;;;;;;;20.48;9.05;;;11.80;99.90;;;;;;5056453;28;20035;-73
2022/04/29 00:17:13;;;;;;;15.77;8.18;;;11.80;99.90;;;;;;5056284;28;20052;-73
2022/04/29 00:19:39;;;;;;;17.55;8.55;;;12.00;99.90;;;;;;5056385;28;20116;-73
2022/04/29 00:22:04;;;;;;;21.38;8.63;;;12.20;99.90;;;;;;5056301;28;20021;-73
2022/04/29 00:24:31;;;;;;;20.15;9.05;;;11.90;99.90;;;;;;5040755;28;20528;-72
2022/04/29 00:26:58;;;;;;;19.60;8.38;;;11.90;99.90;;;;;;5036366;28;20367;-73
2022/04/29 00:29:24;;;;;;;21.15;9.00;;;12.00;99.90;;;;;;5002195;28;20072;-73
2022/04/29 00:31:50;;;;;;;20.80;8.88;;;12.00;99.90;;;;;;5018159;28;20124;-73
2022/04/29 00:34:17;;;;;;;22.77;8.43;;;11.80;99.90;;;;;;5036271;28;20037;-73
2022/04/29 00:36:43;;;;;;;14.77;7.93;;;11.70;99.90;;;;;;5018675;28;20033;-72
2022/04/29 00:39:09;;;;;;;23.85;9.25;;;11.60;99.90;;;;;;5036071;28;20096;-73
2022/04/29 00:41:35;;;;;;;16.73;8.38;;;11.60;99.90;;;;;;5036244;28;20423;-72
2022/04/29 00:44:07;;;;;;;17.75;8.63;;;11.70;99.90;;;;;;5018289;28;20477;-73
2022/04/29 00:46:41;;;;;;;21.63;8.85;;;11.60;99.90;;;;;;5035695;28;20034;-74
2022/04/29 00:49:11;;;;;;;20.30;9.10;;;11.40;99.90;;;;;;5035698;28;20021;-74
2022/04/29 00:51:38;;;;;;;19.13;8.82;;;11.50;99.90;;;;;;5055817;28;20065;-73
2022/04/29 00:54:14;;;;;;;22.73;10.35;;;11.60;99.90;;;;;;5038155;28;20079;-73
2022/04/29 00:56:41;;;;;;;22.13;8.45;;;11.70;99.90;;;;;;5055980;28;20029;-73
2022/04/29 00:59:24;;;;;;;26.65;8.80;;;11.70;99.90;;;;;;5037833;28;20029;-74
2022/04/29 01:01:51;;;;;;;13.32;8.75;;;11.50;99.90;;;;;;5055352;28;20047;-73
2022/04/29 01:04:35;;;;;;;20.70;9.50;;;11.50;99.90;;;;;;5055501;28;20095;-73
2022/04/29 01:07:02;;;;;;;26.00;9.23;;;11.50;99.90;;;;;;5055410;28;20131;-73
2022/04/29 01:09:28;;;;;;;26.80;8.57;;;11.60;99.90;;;;;;5037752;28;20089;-73
2022/04/29 01:11:54;;;;;;;25.17;8.50;;;11.50;99.90;;;;;;5037590;28;20502;-73
2022/04/29 01:14:21;;;;;;;16.33;8.65;;;11.70;99.90;;;;;;5055306;28;20029;-73
2022/04/29 01:16:47;;;;;;;18.55;9.32;;;11.80;99.90;;;;;;5037271;28;20028;-73
2022/04/29 01:19:13;;;;;;;16.85;8.52;;;11.60;99.90;;;;;;5037167;28;20029;-73
2022/04/29 01:21:39;;;;;;;21.60;9.15;;;11.60;99.90;;;;;;5037304;28;20029;-73
2022/04/29 01:24:05;;;;;;;18.23;7.95;;;11.70;99.90;;;;;;5020678;28;20035;-73
2022/04/29 01:26:30;;;;;;;17.83;8.85;;;11.80;99.90;;;;;;5055395;28;20104;-73
2022/04/29 01:28:58;;;;;;;19.42;8.23;;;11.80;99.90;;;;;;5037089;28;20548;-74
2022/04/29 01:31:24;;;;;;;19.83;8.10;;;11.80;99.90;;;;;;5037268;28;20020;-74
2022/04/29 01:33:51;;;;;;;17.30;8.18;;;11.50;99.90;;;;;;5037392;28;20029;-74
2022/04/29 01:36:17;;;;;;;21.63;8.38;;;11.40;99.90;;;;;;5036935;28;20029;-75
2022/04/29 01:38:43;;;;;;;16.95;8.13;;;11.30;99.90;;;;;;5055232;28;20389;-75
2022/04/29 01:41:10;;;;;;;15.98;7.72;;;11.30;99.90;;;;;;5036869;28;20049;-75
2022/04/29 01:43:40;;;;;;;15.80;8.52;;;11.40;99.90;;;;;;5054766;28;20048;-75
2022/04/29 01:46:08;;;;;;;17.05;8.63;;;11.20;99.90;;;;;;5036590;28;20108;-74
2022/04/29 01:48:44;;;;;;;22.90;9.32;;;11.10;99.90;;;;;;5036996;28;20083;-75
2022/04/29 01:51:17;;;;;;;28.23;9.38;;;11.00;99.90;;;;;;5054651;28;20028;-74
2022/04/29 01:53:45;;;;;;;21.08;8.80;;;11.20;99.90;;;;;;5036900;28;20112;-74
2022/04/29 01:56:11;;;;;;;16.10;8.82;;;11.20;99.90;;;;;;5036572;28;20435;-73
2022/04/29 01:58:37;;;;;;;18.13;9.07;;;11.30;99.90;;;;;;5036706;28;20033;-74
2022/04/29 02:01:04;;;;;;;17.17;9.85;;;11.20;99.90;;;;;;5036633;28;20033;-73
2022/04/29 02:03:30;;;;;;;17.63;8.63;;;11.30;99.90;;;;;;5036401;28;20028;-73
2022/04/29 02:05:55;;;;;;;28.75;9.02;;;11.30;99.90;;;;;;5054365;28;20073;-74
2022/04/29 02:08:21;;;;;;;18.55;8.13;;;11.30;99.90;;;;;;5036534;28;20025;-74
2022/04/29 02:10:47;;;;;;;19.08;7.45;;;11.30;99.90;;;;;;5036600;28;20477;-73
2022/04/29 02:13:18;;;;;;;16.70;8.05;;;11.30;99.90;;;;;;5036388;28;20436;-73
2022/04/29 02:15:51;;;;;;;18.65;8.38;;;11.30;99.90;;;;;;5036705;28;20045;-73
2022/04/29 02:18:17;;;;;;;24.17;8.98;;;11.40;99.90;;;;;;5036277;28;20029;-73
2022/04/29 02:20:43;;;;;;;21.33;7.78;;;11.30;99.90;;;;;;5036391;28;20045;-74
2022/04/29 02:23:09;;;;;;;18.92;8.43;;;11.20;99.90;;;;;;5035983;28;20098;-74
2022/04/29 02:25:34;;;;;;;13.15;7.55;;;11.20;99.90;;;;;;5036435;28;20389;-75
2022/04/29 02:28:00;;;;;;;19.15;8.05;;;11.30;99.90;;;;;;5019321;28;20021;-72
2022/04/29 02:30:26;;;;;;;15.43;8.60;;;11.20;99.90;;;;;;5035457;28;20473;-73
2022/04/29 02:32:52;;;;;;;18.55;9.20;;;11.30;99.90;;;;;;5036060;28;20087;-72
2022/04/29 02:35:18;;;;;;;18.98;8.60;;;11.30;99.90;;;;;;5036040;28;20041;-75
2022/04/29 02:37:44;;;;;;;18.67;8.00;;;11.00;99.90;;;;;;5035967;28;20040;-74
2022/04/29 02:40:10;;;;;;;22.85;8.98;;;11.00;99.90;;;;;;5035639;28;20405;-74
2022/04/29 02:42:37;;;;;;;19.35;8.85;;;11.00;99.90;;;;;;5035713;28;20028;-75
2022/04/29 02:45:03;;;;;;;14.30;8.68;;;11.00;99.90;;;;;;5035704;28;20031;-74
2022/04/29 02:47:47;;;;;;;15.57;8.50;;;11.10;99.90;;;;;;5035867;28;20447;-73
2022/04/29 02:50:13;;;;;;;16.38;8.35;;;11.20;99.90;;;;;;5035748;28;20024;-75
2022/04/29 02:52:47;;;;;;;19.75;9.13;;;11.20;99.90;;;;;;5035584;28;20063;-76
2022/04/29 02:55:14;;;;;;;25.45;8.43;;;11.10;99.90;;;;;;5035786;28;20063;-75
2022/04/29 02:58:02;;;;;;;20.48;8.88;;;10.90;99.90;;;;;;5052617;28;20493;-74
2022/04/29 03:00:28;;;;;;;18.80;9.60;;;11.00;99.90;;;;;;5035704;28;20075;-75
2022/04/29 03:02:54;;;;;;;15.43;8.43;;;11.00;99.90;;;;;;5035195;28;20021;-75
2022/04/29 03:05:20;;;;;;;25.08;9.25;;;10.80;99.90;;;;;;5035294;28;20044;-75
2022/04/29 03:07:47;;;;;;;18.30;9.23;;;10.70;99.90;;;;;;5035390;28;20025;-74
2022/04/29 03:10:15;;;;;;;23.83;9.82;;;10.70;99.90;;;;;;5035352;28;20025;-74
2022/04/29 03:12:42;;;;;;;16.00;9.38;;;10.80;99.90;;;;;;5035045;28;20474;-73
2022/04/29 03:15:17;;;;;;;17.63;9.23;;;10.70;99.90;;;;;;5035264;28;20504;-74
2022/04/29 03:20:36;;;;;;;19.77;9.10;;;10.60;99.90;;;;;;5035377;28;20047;-73
2022/04/29 03:23:03;;;;;;;21.27;9.15;;;10.70;99.90;;;;;;5052742;28;20173;-73
2022/04/29 03:25:29;;;;;;;21.17;9.13;;;10.60;99.90;;;;;;5035131;28;20028;-73
2022/04/29 03:27:56;;;;;;;23.00;9.85;;;10.60;99.90;;;;;;5035347;28;20032;-73
2022/04/29 03:30:22;;;;;;;24.92;9.68;;;10.60;99.90;;;;;;5053019;28;20074;-73
2022/04/29 03:32:57;;;;;;;23.15;11.43;;;10.60;99.90;;;;;;5035311;28;20425;-73
2022/04/29 03:35:39;;;;;;;23.00;9.90;;;10.60;99.90;;;;;;5051579;28;20100;-73
2022/04/29 03:38:06;;;;;;;13.80;9.35;;;10.50;99.90;;;;;;5034896;28;20062;-73
2022/04/29 03:40:33;;;;;;;19.80;9.25;;;10.50;99.90;;;;;;5034647;28;20037;-73
2022/04/29 03:42:59;;;;;;;20.23;10.85;;;10.40;99.90;;;;;;5034986;28;20029;-72
2022/04/29 03:45:27;;;;;;;16.65;9.75;;;10.40;99.90;;;;;;5034788;28;20024;-72
2022/04/29 03:47:56;;;;;;;19.67;9.63;;;10.20;99.90;;;;;;5034904;28;20128;-73
2022/04/29 03:50:34;;;;;;;15.77;9.63;;;10.10;99.90;;;;;;5034906;28;20124;-72
2022/04/29 03:53:05;;;;;;;17.88;9.70;;;10.10;99.90;;;;;;5052821;28;20071;-72
2022/04/29 03:55:35;;;;;;;19.85;10.10;;;10.10;99.90;;;;;;5034502;28;20025;-72
2022/04/29 03:58:02;;;;;;;22.05;11.05;;;10.10;99.90;;;;;;5034699;28;20070;-73
2022/04/29 04:00:33;;;;;;;17.05;9.75;;;10.10;99.90;;;;;;5034826;28;20494;-73
2022/04/29 04:03:05;;;;;;;20.35;9.65;;;10.20;99.90;;;;;;5018437;28;20044;-72
2022/04/29 04:05:32;;;;;;;20.90;9.43;;;10.20;99.90;;;;;;5034619;28;20428;-72
2022/04/29 04:07:59;;;;;;;25.75;9.80;;;10.20;99.90;;;;;;5034631;28;20036;-72
2022/04/29 04:10:42;;;;;;;16.95;9.45;;;10.20;99.90;;;;;;5034465;28;20516;-72
2022/04/29 04:13:13;;;;;;;17.58;9.52;;;10.00;99.90;;;;;;5034698;28;20063;-72
2022/04/29 04:15:53;;;;;;;19.63;9.65;;;10.00;99.90;;;;;;5047939;28;20036;-73
2022/04/29 04:18:18;;;;;;;20.90;9.90;;;10.00;99.90;;;;;;5072459;28;20025;-72
2022/04/29 04:20:48;;;;;;;22.13;10.05;;;10.00;99.90;;;;;;5054379;28;20048;-73
2022/04/29 04:23:15;;;;;;;19.13;10.38;;;10.00;99.90;;;;;;5054230;28;20116;-72
2022/04/29 04:25:41;;;;;;;24.17;10.85;;;9.90;99.90;;;;;;5072710;28;20028;-73
2022/04/29 04:28:13;;;;;;;22.30;11.85;;;9.80;99.90;;;;;;5054396;28;20031;-73
2022/04/29 04:31:00;;;;;;;28.17;12.02;;;9.80;99.90;;;;;;5072241;28;20025;-74
2022/04/29 04:33:37;;;;;;;28.30;11.43;;;9.90;99.90;;;;;;5054527;28;20025;-73
2022/04/29 04:36:04;;;;;;;19.45;10.38;;;9.80;99.90;;;;;;5054247;28;20040;-73
2022/04/29 04:38:31;;;;;;;19.55;11.25;;;9.80;99.90;;;;;;5054195;28;20036;-73
2022/04/29 04:41:04;;;;;;;18.73;10.50;;;9.60;99.90;;;;;;5054261;28;20033;-73
2022/04/29 04:43:30;;;;;;;15.65;10.15;;;9.60;99.90;;;;;;5054259;28;20476;-73
2022/04/29 04:45:59;;;;;;;26.38;10.82;;;9.80;99.90;;;;;;5054212;28;20033;-73
2022/04/29 04:48:41;;;;;;;20.90;11.60;;;9.80;99.90;;;;;;5058416;28;20017;-73
2022/04/29 04:51:26;;;;;;;26.73;10.50;;;9.80;99.90;;;;;;5052502;28;20136;-74
2022/04/29 04:53:55;;;;;;;19.85;10.40;;;9.80;99.90;;;;;;5051463;28;20107;-73
2022/04/29 04:56:22;;;;;;;18.52;10.20;;;9.80;99.90;;;;;;5037887;28;20021;-73
2022/04/29 04:58:50;;;;;;;21.45;10.55;;;9.70;99.90;;;;;;5055946;28;20108;-73
2022/04/29 05:01:16;;;;;;;18.83;10.13;;;9.70;99.90;;;;;;5037742;28;20477;-73
2022/04/29 05:04:00;;;;;;;24.17;10.93;;;9.50;99.90;;;;;;5055763;28;20504;-73
2022/04/29 05:06:44;;;;;;;24.65;10.82;;;9.40;99.90;;;;;;5055172;28;20404;-74
2022/04/29 05:09:11;;;;;;;23.40;10.75;;;9.60;99.90;;;;;;5037848;28;20021;-73
2022/04/29 05:11:39;;;;;;;26.95;11.20;;;9.70;99.90;;;;;;5037942;28;20079;-74
2022/04/29 05:14:08;;;;;;;23.92;11.95;;;9.80;99.90;;;;;;5037601;28;20477;-73
2022/04/29 05:16:38;;;;;;;26.80;11.55;;;10.10;99.90;;;;;;5037341;28;20485;-74
2022/04/29 05:19:26;;;;;;;24.10;11.38;;;10.20;99.90;;;;;;5017789;28;20481;-73
2022/04/29 05:21:53;;;;;;;25.40;11.65;;;10.10;99.90;;;;;;5037238;28;20029;-73
2022/04/29 05:24:19;;;;;;;25.45;11.95;;;10.00;99.90;;;;;;5037358;28;20029;-74
2022/04/29 05:27:08;;;;;;;24.52;12.55;;;10.20;99.90;;;;;;5054814;28;20080;-73
2022/04/29 05:29:52;;;;;;;33.85;12.80;;;10.50;99.90;;;;;;5055465;28;20512;-73
2022/04/29 05:32:47;;;;;;;22.38;11.70;;;10.40;99.90;;;;;;5054853;28;20037;-74
2022/04/29 05:35:13;;;;;;;22.90;10.45;;;10.40;99.90;;;;;;5037162;28;20033;-74
2022/04/29 05:38:14;;;;;;;27.45;10.77;;;10.30;99.90;;;;;;4935636;29;20036;-73
2022/04/29 05:43:28;;;;;;;23.90;11.15;;;10.20;99.90;;;;;;5023202;28;20017;-74
2022/04/29 05:45:54;;;;;;;26.33;11.25;;;10.30;99.90;;;;;;5025835;28;20043;-74
2022/04/29 05:48:22;;;;;;;22.13;11.07;;;10.30;99.90;;;;;;5019181;28;20025;-73
2022/04/29 05:50:48;;;;;;;25.60;11.75;;;10.20;99.90;;;;;;5031904;28;20044;-74
2022/04/29 05:53:15;;;;;;;25.27;12.35;;;10.30;99.90;;;;;;5039204;28;20021;-74
2022/04/29 05:55:47;;;;;;;29.77;10.95;;;10.50;99.90;;;;;;5026677;28;20048;-74
2022/04/29 05:58:13;;;;;;;22.58;10.90;;;10.50;99.90;;;;;;5028621;28;20108;-74
2022/04/29 06:00:47;;;;;;;28.50;11.02;;;10.60;99.90;;;;;;5034623;28;20128;-73
2022/04/29 06:03:13;;;;;;;24.65;11.40;;;10.70;99.90;;;;;;5024395;28;20116;-74
2022/04/29 06:05:39;;;;;;;22.23;11.25;;;10.60;99.90;;;;;;5026274;28;20041;-74
2022/04/29 06:08:05;;;;;;;18.98;11.85;;;10.80;99.90;;;;;;5027642;28;20420;-74
2022/04/29 06:10:35;;;;;;;28.33;12.80;;;10.70;99.90;;;;;;5029313;28;20461;-74
2022/04/29 06:13:00;;;;;;;19.08;10.95;;;10.90;99.90;;;;;;5019179;28;20025;-74
2022/04/29 06:15:31;;;;;;;22.75;11.10;;;10.90;99.90;;;;;;5028394;28;20121;-73
2022/04/29 06:18:14;;;;;;;18.05;11.38;;;10.80;99.90;;;;;;5027835;28;20028;-73
2022/04/29 06:21:13;;;;;;;19.38;11.00;;;11.10;99.90;;;;;;5014355;28;20508;-73
2022/04/29 06:23:48;;;;;;;23.60;12.38;;;11.30;99.90;;;;;;5026175;28;20128;-74
2022/04/29 06:26:15;;;;;;;26.65;12.07;;;11.40;99.90;;;;;;5045218;28;20040;-73
2022/04/29 06:28:41;;;;;;;19.77;11.73;;;11.70;99.90;;;;;;5018642;28;20026;-74
2022/04/29 06:31:08;;;;;;;17.35;10.65;;;11.60;99.90;;;;;;5031343;28;20022;-74
2022/04/29 06:33:56;;;;;;;22.35;11.23;;;11.60;99.90;;;;;;5043265;28;20041;-74
2022/04/29 06:36:22;;;;;;;22.17;11.05;;;11.80;99.90;;;;;;5020812;28;20458;-77
2022/04/29 06:38:53;;;;;;;24.20;11.27;;;11.90;99.90;;;;;;5031689;28;20117;-74
2022/04/29 06:41:51;;;;;;;23.75;10.70;;;11.80;99.90;;;;;;5042935;28;20040;-73
2022/04/29 06:44:39;;;;;;;24.75;11.52;;;11.50;99.90;;;;;;5021783;28;20038;-73
2022/04/29 06:47:23;;;;;;;24.67;12.30;;;11.50;99.90;;;;;;5046656;28;20036;-74
2022/04/29 06:50:10;;;;;;;28.58;12.43;;;11.40;99.90;;;;;;5045136;28;20048;-72
2022/04/29 06:52:56;;;;;;;31.67;12.95;;;11.40;99.90;;;;;;5014226;28;20390;-73
2022/04/29 06:55:26;;;;;;;26.73;13.85;;;11.20;99.90;;;;;;5028477;28;20104;-74
2022/04/29 06:57:53;;;;;;;29.17;13.13;;;11.10;99.90;;;;;;5025259;28;20035;-74
2022/04/29 07:00:19;;;;;;;29.38;14.73;;;11.10;99.90;;;;;;5038526;28;20041;-73
2022/04/29 07:02:46;;;;;;;24.17;14.85;;;11.30;99.90;;;;;;5001954;28;20381;-73
2022/04/29 07:05:12;;;;;;;16.85;12.82;;;11.50;99.90;;;;;;5050074;28;20031;-74
2022/04/29 07:07:38;;;;;;;24.42;12.90;;;11.40;99.90;;;;;;5034767;28;20139;-74
2022/04/29 07:10:24;;;;;;;33.38;15.18;;;11.50;99.90;;;;;;5031244;28;20033;-75
2022/04/29 07:13:16;;;;;;;28.80;14.75;;;11.60;99.90;;;;;;5052928;28;20037;-74
2022/04/29 07:15:43;;;;;;;27.63;14.00;;;11.20;99.90;;;;;;5018902;28;20050;-73
2022/04/29 07:18:29;;;;;;;20.08;13.98;;;11.20;99.90;;;;;;5052527;28;20040;-73
2022/04/29 07:20:55;;;;;;;24.00;13.20;;;11.30;99.90;;;;;;5035378;28;20037;-73
2022/04/29 07:23:20;;;;;;;36.88;14.98;;;11.00;99.90;;;;;;5018672;28;20028;-72
2022/04/29 07:25:46;;;;;;;25.50;14.43;;;10.80;99.90;;;;;;5031806;28;20120;-73
2022/04/29 07:28:12;;;;;;;28.80;13.60;;;11.10;99.90;;;;;;5048061;28;20467;-74
2022/04/29 07:30:39;;;;;;;19.55;12.80;;;11.10;99.90;;;;;;5018220;28;20029;-73
2022/04/29 07:33:22;;;;;;;29.83;14.85;;;11.10;99.90;;;;;;5026988;28;20480;-74
2022/04/29 07:41:44;;;;;;;27.20;15.43;;;11.10;99.90;;;;;;5025655;28;20052;-73
2022/04/29 07:44:11;;;;;;;36.08;16.00;;;10.70;99.90;;;;;;5028763;28;20036;-73
2022/04/29 07:46:43;;;;;;;38.85;15.25;;;10.80;99.90;;;;;;5017786;28;20028;-73
2022/04/29 07:49:33;;;;;;;24.30;13.93;;;11.10;99.90;;;;;;5020138;28;20029;-74
2022/04/29 07:51:59;;;;;;;24.20;14.05;;;11.70;99.90;;;;;;5027328;28;20060;-73
2022/04/29 07:54:25;;;;;;;31.95;15.75;;;12.00;99.90;;;;;;5018254;28;20021;-73
2022/04/29 07:56:53;;;;;;;28.13;15.52;;;11.80;99.90;;;;;;5030701;28;20119;-73
2022/04/29 07:59:20;;;;;;;33.75;15.13;;;11.80;99.90;;;;;;5021689;28;20025;-76
2022/04/29 08:01:46;;;;;;;34.65;16.38;;;11.30;99.90;;;;;;5022074;28;20052;-76
2022/04/29 08:04:13;;;;;;;39.42;16.35;;;11.20;99.90;;;;;;5029094;28;20052;-76
2022/04/29 08:06:40;;;;;;;29.20;14.50;;;11.30;99.90;;;;;;5017018;28;20485;-76
2022/04/29 08:09:08;;;;;;;35.45;16.35;;;11.60;99.90;;;;;;5049903;28;20029;-77
2022/04/29 08:11:37;;;;;;;30.75;16.10;;;11.70;99.90;;;;;;5033544;28;20060;-76
2022/04/29 08:14:22;;;;;;;28.23;16.48;;;11.80;99.90;;;;;;5052483;28;20067;-73
2022/04/29 08:16:57;;;;;;;21.33;13.65;;;11.90;99.90;;;;;;5052698;28;20041;-74
2022/04/29 08:19:33;;;;;;;27.17;14.20;;;12.10;99.90;;;;;;5034463;28;20107;-74
2022/04/29 08:22:19;;;;;;;32.83;15.40;;;12.10;99.90;;;;;;5051045;28;20067;-75
2022/04/29 08:24:45;;;;;;;26.25;15.38;;;11.80;99.90;;;;;;5050841;28;20021;-76
2022/04/29 08:27:12;;;;;;;26.30;15.40;;;11.80;99.90;;;;;;5034706;28;20028;-75
2022/04/29 08:29:38;;;;;;;23.15;14.43;;;11.80;99.90;;;;;;5036391;28;20026;-74
2022/04/29 08:32:05;;;;;;;32.22;15.70;;;12.10;99.90;;;;;;5038278;28;20049;-76
2022/04/29 08:34:36;;;;;;;34.90;16.17;;;12.00;99.90;;;;;;5038011;28;20389;-74
2022/04/29 08:37:04;;;;;;;23.00;14.70;;;12.10;99.90;;;;;;5021969;28;20119;-72
2022/04/29 08:39:34;;;;;;;31.55;16.80;;;12.30;99.90;;;;;;5037957;28;20044;-71
2022/04/29 08:42:02;;;;;;;29.05;17.70;;;12.20;99.90;;;;;;5054740;28;20412;-70
2022/04/29 08:44:32;;;;;;;28.83;17.23;;;12.30;99.90;;;;;;5054151;28;20025;-70
2022/04/29 08:47:18;;;;;;;28.38;16.50;;;12.60;99.90;;;;;;5040640;28;20033;-71
2022/04/29 08:50:00;;;;;;;27.80;15.57;;;12.60;99.90;;;;;;5017999;28;20120;-70
2022/04/29 08:52:27;;;;;;;31.98;14.20;;;12.70;99.90;;;;;;5036027;28;20466;-70
2022/04/29 09:00:23;;;;;;;29.50;15.13;;;13.10;99.90;;;;;;5035331;28;20045;-72
2022/04/29 09:02:49;;;;;;;32.25;14.25;;;13.20;99.90;;;;;;5040616;28;20516;-72
2022/04/29 09:05:15;;;;;;;27.70;14.65;;;13.30;99.90;;;;;;5055558;28;20112;-72
2022/04/29 09:07:59;;;;;;;20.65;14.23;;;13.40;99.90;;;;;;5055737;28;20112;-72
2022/04/29 09:10:32;;;;;;;30.13;13.88;;;13.40;99.90;;;;;;5037520;28;20070;-72
2022/04/29 09:13:25;;;;;;;24.38;15.10;;;13.40;99.90;;;;;;5055362;28;20025;-72
2022/04/29 09:15:54;;;;;;;35.90;15.63;;;13.10;99.90;;;;;;5055305;28;20087;-72
2022/04/29 09:18:40;;;;;;;29.80;14.70;;;13.10;99.90;;;;;;5029631;28;20036;-72
2022/04/29 09:21:09;;;;;;;923.65;81.68;;;12.80;99.90;;;;;;5047599;28;20088;-73
2022/04/29 09:23:44;;;;;;;33.58;14.90;;;13.20;99.90;;;;;;5046086;28;20053;-71
2022/04/29 09:26:38;;;;;;;29.77;14.35;;;13.40;99.90;;;;;;5038203;28;20095;-71
2022/04/29 09:29:31;;;;;;;32.38;15.65;;;13.30;99.90;;;;;;5035905;28;20117;-71
2022/04/29 09:32:19;;;;;;;31.23;13.93;;;13.30;99.90;;;;;;5051084;28;20041;-71
2022/04/29 09:35:04;;;;;;;30.13;14.82;;;13.20;99.90;;;;;;5042138;28;20171;-71
2022/04/29 09:37:33;;;;;;;29.20;14.57;;;13.00;99.90;;;;;;5026128;28;20127;-71
2022/04/29 09:40:04;;;;;;;30.98;15.27;;;12.90;99.90;;;;;;5031391;28;20037;-71
2022/04/29 09:42:36;;;;;;;29.50;16.17;;;12.70;99.90;;;;;;5037677;28;20025;-71
2022/04/29 09:45:12;;;;;;;26.40;15.45;;;12.70;99.90;;;;;;5047985;28;20033;-71
2022/04/29 09:47:38;;;;;;;30.48;16.20;;;13.20;99.90;;;;;;5042816;28;20033;-71
2022/04/29 09:50:04;;;;;;;31.90;17.50;;;13.40;99.90;;;;;;5052368;28;20378;-70
2022/04/29 09:52:31;;;;;;;32.88;17.83;;;13.00;99.90;;;;;;5053046;28;20039;-70
2022/04/29 09:55:29;;;;;;;38.42;19.30;;;12.80;99.90;;;;;;5052638;28;20021;-70
2022/04/29 09:58:00;;;;;;;31.95;17.38;;;13.30;99.90;;;;;;5009591;28;20126;-71
2022/04/29 10:00:26;;;;;;;33.03;17.65;;;13.00;99.90;;;;;;5036189;28;20044;-71
2022/04/29 10:02:52;;;;;;;31.35;18.27;;;12.80;99.90;;;;;;5054095;28;20025;-71
2022/04/29 10:05:22;;;;;;;33.22;17.55;;;12.80;99.90;;;;;;5020422;28;20064;-71
2022/04/29 10:08:15;;;;;;;35.85;18.88;;;13.40;99.90;;;;;;5049052;28;20037;-71
2022/04/29 10:10:41;;;;;;;30.65;16.73;;;14.30;99.90;;;;;;5054376;28;20037;-71
2022/04/29 10:13:08;;;;;;;36.33;18.52;;;14.50;99.90;;;;;;5019613;28;20384;-71
2022/04/29 10:15:40;;;;;;;25.70;17.02;;;15.10;99.90;;;;;;5054341;28;20079;-71
2022/04/29 10:21:43;;;;;;;25.83;15.20;;;15.20;99.90;;;;;;5040498;28;20132;-71
2022/04/29 10:24:09;;;;;;;20.35;14.77;;;15.20;99.90;;;;;;5053988;28;20033;-71
2022/04/29 10:26:35;;;;;;;41.10;14.75;;;15.30;99.90;;;;;;5053800;28;20039;-71
2022/04/29 10:29:02;;;;;;;26.15;13.93;;;15.70;99.90;;;;;;5036044;28;20059;-71
2022/04/29 10:31:31;;;;;;;32.20;14.05;;;16.00;99.90;;;;;;5054060;28;20017;-71
2022/04/29 10:34:35;;;;;;;26.48;14.85;;;16.20;99.40;;;;;;5053653;28;20496;-70
2022/04/29 10:37:14;;;;;;;32.20;15.45;;;16.30;99.20;;;;;;4937647;29;20034;-70
2022/04/29 10:40:10;;;;;;;22.10;14.40;;;16.10;99.70;;;;;;4953745;29;20035;-70
2022/04/29 10:43:03;;;;;;;24.67;15.18;;;16.20;99.40;;;;;;5030642;28;20072;-71
2022/04/29 10:45:29;;;;;;;32.25;14.85;;;15.80;99.20;;;;;;5023729;28;20591;-71
2022/04/29 10:48:29;;;;;;;20.08;14.35;;;15.70;99.90;;;;;;5053307;28;20029;-71
2022/04/29 10:51:17;;;;;;;23.92;15.40;;;16.00;99.10;;;;;;5053076;28;20075;-71
2022/04/29 10:54:07;;;;;;;24.50;15.25;;;15.70;99.90;;;;;;5053160;28;20508;-71
2022/04/29 10:57:14;;;;;;;27.58;14.10;;;16.10;99.60;;;;;;4992014;28;20121;-71
2022/04/29 10:59:50;;;;;;;25.77;14.73;;;16.20;99.60;;;;;;5043128;28;20505;-71
2022/04/29 11:02:30;;;;;;;27.75;14.40;;;16.40;99.30;;;;;;5053227;28;20033;-71
2022/04/29 11:04:57;;;;;;;25.58;14.05;;;16.50;98.50;;;;;;5052922;28;20112;-71
2022/04/29 11:07:44;;;;;;;29.70;14.90;;;16.90;98.60;;;;;;5053013;28;20064;-71
2022/04/29 11:10:14;;;;;;;23.75;14.27;;;16.60;98.40;;;;;;5052777;28;20385;-71
2022/04/29 11:12:56;;;;;;;27.08;14.55;;;16.80;98.40;;;;;;5035310;28;20021;-71
2022/04/29 11:15:48;;;;;;;24.23;14.68;;;16.90;98.60;;;;;;5014857;28;20041;-71
2022/04/29 11:18:42;;;;;;;25.02;15.27;;;16.90;98.00;;;;;;5048656;28;20505;-71
2022/04/29 11:26:49;;;;;;;26.23;14.10;;;17.60;96.70;;;;;;5035114;28;20025;-71
2022/04/29 11:29:17;;;;;;;28.05;14.95;;;17.80;95.90;;;;;;5034997;28;20116;-71
2022/04/29 11:32:02;;;;;;;29.45;14.82;;;17.80;96.20;;;;;;5035187;28;20377;-71
2022/04/29 11:34:27;;;;;;;26.25;15.95;;;18.20;96.00;;;;;;5052621;28;20025;-71
2022/04/29 11:36:57;;;;;;;27.63;14.18;;;17.70;95.80;;;;;;5052718;28;20363;-71
2022/04/29 11:39:22;;;;;;;25.92;15.00;;;17.60;95.90;;;;;;5052269;28;20180;-72
2022/04/29 11:41:56;;;;;;;31.90;15.27;;;17.40;97.00;;;;;;5052898;28;20137;-71
2022/04/29 11:44:33;;;;;;;36.83;15.32;;;17.20;96.30;;;;;;5034443;28;20029;-71
2022/04/29 11:46:59;;;;;;;30.33;15.00;;;17.40;96.20;;;;;;5052566;28;20086;-71
2022/04/29 11:49:34;;;;;;;28.40;15.10;;;17.40;96.10;;;;;;5032868;28;20026;-71
2022/04/29 11:52:25;;;;;;;25.95;16.13;;;17.00;96.40;;;;;;5032770;28;20033;-71
2022/04/29 11:55:04;;;;;;;25.30;14.35;;;17.20;96.80;;;;;;5032919;28;20026;-71
2022/04/29 11:57:41;;;;;;;31.85;14.57;;;17.00;96.40;;;;;;5031513;28;20030;-71
2022/04/29 12:00:08;;;;;;;29.02;14.65;;;16.90;97.20;;;;;;5032497;28;20049;-71
2022/04/29 12:02:46;;;;;;;29.95;16.02;;;16.90;97.10;;;;;;5036887;28;20123;-71
2022/04/29 12:05:13;;;;;;;;;;;16.70;97.60;;;;;;5055963;28;20112;-71
2022/04/29 12:07:45;;;;;;;22.45;14.07;;;17.00;97.20;;;;;;5056552;28;20015;-71
2022/04/29 12:10:26;;;;;;;25.80;14.70;;;17.40;97.10;;;;;;5038834;28;20036;-71
2022/04/29 12:12:57;;;;;;;25.95;14.48;;;17.20;96.50;;;;;;5056655;28;20060;-71
2022/04/29 12:15:27;;;;;;;26.50;14.98;;;17.20;96.70;;;;;;5056540;28;20040;-71
2022/04/29 12:18:01;;;;;;;25.73;14.23;;;17.30;96.60;;;;;;5038528;28;20043;-71
2022/04/29 12:20:27;;;;;;;25.90;14.05;;;18.20;96.00;;;;;;5056348;28;20083;-71
2022/04/29 12:22:54;;;;;;;22.75;13.00;;;18.40;94.90;;;;;;5038470;28;20044;-71
2022/04/29 12:25:34;;;;;;;23.35;13.85;;;18.90;94.40;;;;;;5038291;28;20044;-71
2022/04/29 12:28:12;;;;;;;22.52;14.27;;;18.80;94.30;;;;;;5055563;28;20025;-71
2022/04/29 12:36:57;;;;;;;28.83;14.70;;;19.10;93.50;;;;;;5037698;28;20033;-71
2022/04/29 12:39:33;;;;;;;26.92;14.95;;;19.30;93.30;;;;;;5038083;28;20025;-71
2022/04/29 12:42:09;;;;;;;30.05;14.88;;;18.90;93.80;;;;;;5056047;28;20041;-71
2022/04/29 12:45:07;;;;;;;24.83;14.25;;;19.10;93.70;;;;;;5056065;28;20096;-71
2022/04/29 12:47:42;;;;;;;24.02;13.57;;;19.40;93.00;;;;;;5023137;28;20063;-71
2022/04/29 12:50:25;;;;;;;28.30;14.02;;;19.60;93.00;;;;;;5055539;28;20434;-71
2022/04/29 12:53:21;;;;;;;24.83;13.50;;;19.80;92.80;;;;;;5056008;28;20055;-71
2022/04/29 12:55:51;;;;;;;23.98;13.90;;;19.10;92.90;;;;;;5038501;28;20048;-71
2022/04/29 12:58:21;;;;;;;22.50;13.00;;;19.70;93.30;;;;;;5054432;28;20025;-71
2022/04/29 13:01:06;;;;;;;30.55;13.32;;;21.00;92.30;;;;;;5055805;28;20482;-71
2022/04/29 13:03:55;;;;;;;19.40;12.95;;;22.40;90.50;;;;;;5054261;28;20017;-70
2022/04/29 13:06:39;;;;;;;31.83;13.27;;;21.10;90.60;;;;;;5055108;28;20413;-71
2022/04/29 13:09:06;;;;;;;28.15;13.75;;;19.60;91.70;;;;;;5055552;28;20063;-71
2022/04/29 13:11:32;;;;;;;24.63;13.38;;;19.90;92.60;;;;;;5054163;28;20465;-71
2022/04/29 13:14:02;;;;;;;23.67;12.68;;;20.80;91.50;;;;;;5037409;28;20023;-71
2022/04/29 13:16:27;;;;;;;25.05;12.93;;;21.80;90.90;;;;;;5053712;28;20108;-71
2022/04/29 13:18:54;;;;;;;22.65;12.23;;;23.00;88.90;;;;;;5054157;28;20025;-72
2022/04/29 13:21:20;;;;;;;24.85;12.15;;;22.80;88.70;;;;;;5062015;28;20598;-72
2022/04/29 13:23:50;;;;;;;24.73;12.63;;;23.90;87.50;;;;;;5057437;28;20024;-72
2022/04/29 13:26:32;;;;;;;28.80;12.30;;;23.30;85.30;;;;;;5057254;28;20036;-71
2022/04/29 13:28:58;;;;;;;22.92;12.45;;;23.60;86.10;;;;;;5075040;28;20036;-71